sensor_id;sensor_type;location;lat;lon;timestamp;P1;durP1;ratioP1;P2;durP2;ratioP2
14892;SDS011;7538;53.626;9.906;2023-05-10T00:01:43;4.88;;;3.28;;
14892;SDS011;7538;53.626;9.906;2023-05-10T00:04:09;3.28;;;2.95;;
14892;SDS011;7538;53.626;9.906;2023-05-10T00:06:36;5.18;;;3.75;;
14892;SDS011;7538;53.626;9.906;2023-05-10T00:09:04;6.40;;;3.20;;
14892;SDS011;7538;53.626;9.906;2023-05-10T00:11:31;4.78;;;3.40;;
14892;SDS011;7538;53.626;9.906;2023-05-10T00:13:58;4.70;;;3.35;;
14892;SDS011;7538;53.626;9.906;2023-05-10T00:16:25;3.60;;;3.13;;
14892;SDS011;7538;53.626;9.906;2023-05-10T00:18:52;3.75;;;3.20;;
14892;SDS011;7538;53.626;9.906;2023-05-10T00:21:18;4.43;;;3.00;;
14892;SDS011;7538;53.626;9.906;2023-05-10T00:23:45;5.38;;;3.60;;
14892;SDS011;7538;53.626;9.906;2023-05-10T00:26:13;6.65;;;3.60;;
14892;SDS011;7538;53.626;9.906;2023-05-10T00:28:41;6.82;;;3.65;;
14892;SDS011;7538;53.626;9.906;2023-05-10T00:31:08;4.03;;;3.33;;
14892;SDS011;7538;53.626;9.906;2023-05-10T00:33:35;3.63;;;3.15;;
14892;SDS011;7538;53.626;9.906;2023-05-10T00:36:02;5.20;;;3.10;;
14892;SDS011;7538;53.626;9.906;2023-05-10T00:38:29;3.65;;;3.08;;
14892;SDS011;7538;53.626;9.906;2023-05-10T00:40:56;4.25;;;3.70;;
14892;SDS011;7538;53.626;9.906;2023-05-10T00:43:24;4.38;;;3.38;;
14892;SDS011;7538;53.626;9.906;2023-05-10T00:45:50;4.43;;;3.13;;
14892;SDS011;7538;53.626;9.906;2023-05-10T00:48:18;3.70;;;3.35;;
14892;SDS011;7538;53.626;9.906;2023-05-10T00:50:45;3.55;;;3.25;;
14892;SDS011;7538;53.626;9.906;2023-05-10T00:53:12;3.70;;;3.10;;
14892;SDS011;7538;53.626;9.906;2023-05-10T00:55:41;4.32;;;3.85;;
14892;SDS011;7538;53.626;9.906;2023-05-10T00:58:08;6.50;;;3.28;;
14892;SDS011;7538;53.626;9.906;2023-05-10T01:00:37;3.58;;;3.28;;
14892;SDS011;7538;53.626;9.906;2023-05-10T01:03:07;5.20;;;3.80;;
14892;SDS011;7538;53.626;9.906;2023-05-10T01:05:34;4.10;;;3.70;;
14892;SDS011;7538;53.626;9.906;2023-05-10T01:08:01;4.72;;;3.33;;
14892;SDS011;7538;53.626;9.906;2023-05-10T01:10:28;5.03;;;3.85;;
14892;SDS011;7538;53.626;9.906;2023-05-10T01:12:55;4.32;;;3.75;;
14892;SDS011;7538;53.626;9.906;2023-05-10T01:15:22;5.10;;;3.60;;
14892;SDS011;7538;53.626;9.906;2023-05-10T01:17:51;3.67;;;3.33;;
14892;SDS011;7538;53.626;9.906;2023-05-10T01:20:19;4.20;;;3.80;;
14892;SDS011;7538;53.626;9.906;2023-05-10T01:23:04;3.72;;;3.40;;
14892;SDS011;7538;53.626;9.906;2023-05-10T01:25:53;5.63;;;3.90;;
14892;SDS011;7538;53.626;9.906;2023-05-10T01:28:49;4.20;;;3.38;;
14892;SDS011;7538;53.626;9.906;2023-05-10T01:31:49;7.43;;;4.07;;
14892;SDS011;7538;53.626;9.906;2023-05-10T01:34:39;5.32;;;3.65;;
14892;SDS011;7538;53.626;9.906;2023-05-10T01:37:13;4.90;;;3.55;;
14892;SDS011;7538;53.626;9.906;2023-05-10T01:39:46;4.57;;;3.92;;
14892;SDS011;7538;53.626;9.906;2023-05-10T01:42:16;5.28;;;3.50;;
14892;SDS011;7538;53.626;9.906;2023-05-10T01:44:49;5.20;;;3.72;;
14892;SDS011;7538;53.626;9.906;2023-05-10T01:47:24;4.13;;;3.60;;
14892;SDS011;7538;53.626;9.906;2023-05-10T01:49:57;6.07;;;3.72;;
14892;SDS011;7538;53.626;9.906;2023-05-10T01:52:30;5.38;;;4.00;;
14892;SDS011;7538;53.626;9.906;2023-05-10T01:55:00;3.95;;;3.55;;
14892;SDS011;7538;53.626;9.906;2023-05-10T01:57:32;4.85;;;4.03;;
14892;SDS011;7538;53.626;9.906;2023-05-10T02:00:02;4.40;;;3.38;;
14892;SDS011;7538;53.626;9.906;2023-05-10T02:02:32;4.30;;;3.70;;
14892;SDS011;7538;53.626;9.906;2023-05-10T02:05:03;5.78;;;3.83;;
14892;SDS011;7538;53.626;9.906;2023-05-10T02:07:32;6.15;;;3.80;;
14892;SDS011;7538;53.626;9.906;2023-05-10T02:10:01;4.40;;;4.00;;
14892;SDS011;7538;53.626;9.906;2023-05-10T02:12:30;6.45;;;3.75;;
14892;SDS011;7538;53.626;9.906;2023-05-10T02:15:02;4.25;;;3.40;;
14892;SDS011;7538;53.626;9.906;2023-05-10T02:17:32;5.97;;;3.80;;
14892;SDS011;7538;53.626;9.906;2023-05-10T02:20:01;6.35;;;3.88;;
14892;SDS011;7538;53.626;9.906;2023-05-10T02:22:29;6.43;;;3.90;;
14892;SDS011;7538;53.626;9.906;2023-05-10T02:24:58;5.10;;;3.85;;
14892;SDS011;7538;53.626;9.906;2023-05-10T02:27:26;4.20;;;3.80;;
14892;SDS011;7538;53.626;9.906;2023-05-10T02:29:54;5.53;;;3.53;;
14892;SDS011;7538;53.626;9.906;2023-05-10T02:32:22;4.18;;;3.17;;
14892;SDS011;7538;53.626;9.906;2023-05-10T02:34:53;3.78;;;3.33;;
14892;SDS011;7538;53.626;9.906;2023-05-10T02:37:22;5.22;;;3.83;;
14892;SDS011;7538;53.626;9.906;2023-05-10T02:39:50;4.22;;;3.83;;
14892;SDS011;7538;53.626;9.906;2023-05-10T02:42:18;5.18;;;3.92;;
14892;SDS011;7538;53.626;9.906;2023-05-10T02:44:49;4.68;;;4.05;;
14892;SDS011;7538;53.626;9.906;2023-05-10T02:47:18;4.80;;;4.40;;
14892;SDS011;7538;53.626;9.906;2023-05-10T02:49:46;4.60;;;3.53;;
14892;SDS011;7538;53.626;9.906;2023-05-10T02:52:15;4.32;;;3.92;;
14892;SDS011;7538;53.626;9.906;2023-05-10T02:54:48;4.53;;;3.92;;
14892;SDS011;7538;53.626;9.906;2023-05-10T02:57:20;7.10;;;4.22;;
14892;SDS011;7538;53.626;9.906;2023-05-10T02:59:58;4.15;;;3.40;;
14892;SDS011;7538;53.626;9.906;2023-05-10T03:02:26;3.53;;;3.22;;
14892;SDS011;7538;53.626;9.906;2023-05-10T03:04:53;4.95;;;3.90;;
14892;SDS011;7538;53.626;9.906;2023-05-10T03:07:21;4.15;;;3.75;;
14892;SDS011;7538;53.626;9.906;2023-05-10T03:09:48;4.22;;;3.83;;
14892;SDS011;7538;53.626;9.906;2023-05-10T03:15:03;6.55;;;4.03;;
14892;SDS011;7538;53.626;9.906;2023-05-10T03:17:37;5.20;;;4.05;;
14892;SDS011;7538;53.626;9.906;2023-05-10T03:20:10;5.22;;;3.88;;
14892;SDS011;7538;53.626;9.906;2023-05-10T03:22:44;6.50;;;4.00;;
14892;SDS011;7538;53.626;9.906;2023-05-10T03:25:14;4.63;;;3.85;;
14892;SDS011;7538;53.626;9.906;2023-05-10T03:27:43;7.60;;;4.57;;
14892;SDS011;7538;53.626;9.906;2023-05-10T03:30:10;4.70;;;3.75;;
14892;SDS011;7538;53.626;9.906;2023-05-10T03:32:39;5.28;;;4.45;;
14892;SDS011;7538;53.626;9.906;2023-05-10T03:35:06;5.32;;;4.10;;
14892;SDS011;7538;53.626;9.906;2023-05-10T03:37:33;6.97;;;4.10;;
14892;SDS011;7538;53.626;9.906;2023-05-10T03:40:02;5.32;;;4.15;;
14892;SDS011;7538;53.626;9.906;2023-05-10T03:42:30;6.95;;;3.60;;
14892;SDS011;7538;53.626;9.906;2023-05-10T03:44:56;6.28;;;3.88;;
14892;SDS011;7538;53.626;9.906;2023-05-10T03:47:23;4.38;;;3.78;;
14892;SDS011;7538;53.626;9.906;2023-05-10T03:49:50;4.97;;;3.90;;
14892;SDS011;7538;53.626;9.906;2023-05-10T03:52:18;7.20;;;4.00;;
14892;SDS011;7538;53.626;9.906;2023-05-10T03:54:44;5.32;;;3.63;;
14892;SDS011;7538;53.626;9.906;2023-05-10T03:57:13;4.30;;;3.90;;
14892;SDS011;7538;53.626;9.906;2023-05-10T03:59:39;5.57;;;3.85;;
14892;SDS011;7538;53.626;9.906;2023-05-10T04:02:06;5.20;;;3.92;;
14892;SDS011;7538;53.626;9.906;2023-05-10T04:04:33;7.35;;;3.97;;
14892;SDS011;7538;53.626;9.906;2023-05-10T04:07:00;5.57;;;4.13;;
14892;SDS011;7538;53.626;9.906;2023-05-10T04:09:27;8.50;;;4.18;;
14892;SDS011;7538;53.626;9.906;2023-05-10T04:11:54;4.75;;;4.10;;
14892;SDS011;7538;53.626;9.906;2023-05-10T04:14:22;6.95;;;4.40;;
14892;SDS011;7538;53.626;9.906;2023-05-10T04:16:48;4.38;;;3.63;;
14892;SDS011;7538;53.626;9.906;2023-05-10T04:19:15;4.50;;;4.10;;
14892;SDS011;7538;53.626;9.906;2023-05-10T04:21:42;5.22;;;4.07;;
14892;SDS011;7538;53.626;9.906;2023-05-10T04:24:09;5.90;;;4.57;;
14892;SDS011;7538;53.626;9.906;2023-05-10T04:26:36;5.72;;;4.25;;
14892;SDS011;7538;53.626;9.906;2023-05-10T04:29:02;5.20;;;3.67;;
14892;SDS011;7538;53.626;9.906;2023-05-10T04:31:30;5.07;;;4.53;;
14892;SDS011;7538;53.626;9.906;2023-05-10T04:33:57;6.07;;;4.10;;
14892;SDS011;7538;53.626;9.906;2023-05-10T04:36:24;5.70;;;4.10;;
14892;SDS011;7538;53.626;9.906;2023-05-10T04:38:51;5.55;;;4.28;;
14892;SDS011;7538;53.626;9.906;2023-05-10T04:41:18;4.88;;;3.75;;
14892;SDS011;7538;53.626;9.906;2023-05-10T04:43:45;5.95;;;4.38;;
14892;SDS011;7538;53.626;9.906;2023-05-10T04:46:14;4.00;;;3.65;;
14892;SDS011;7538;53.626;9.906;2023-05-10T04:48:42;7.75;;;4.55;;
14892;SDS011;7538;53.626;9.906;2023-05-10T04:51:09;5.07;;;3.55;;
14892;SDS011;7538;53.626;9.906;2023-05-10T04:53:35;5.05;;;4.10;;
14892;SDS011;7538;53.626;9.906;2023-05-10T04:56:02;5.85;;;4.35;;
14892;SDS011;7538;53.626;9.906;2023-05-10T04:58:29;5.93;;;4.53;;
14892;SDS011;7538;53.626;9.906;2023-05-10T05:00:56;6.28;;;4.38;;
14892;SDS011;7538;53.626;9.906;2023-05-10T05:03:23;5.03;;;4.32;;
14892;SDS011;7538;53.626;9.906;2023-05-10T05:05:51;9.38;;;4.72;;
14892;SDS011;7538;53.626;9.906;2023-05-10T05:08:18;5.10;;;4.50;;
14892;SDS011;7538;53.626;9.906;2023-05-10T05:10:45;5.43;;;3.95;;
14892;SDS011;7538;53.626;9.906;2023-05-10T05:13:15;4.70;;;3.85;;
14892;SDS011;7538;53.626;9.906;2023-05-10T05:15:42;5.65;;;4.32;;
14892;SDS011;7538;53.626;9.906;2023-05-10T05:18:08;4.80;;;4.18;;
14892;SDS011;7538;53.626;9.906;2023-05-10T05:20:35;5.18;;;4.05;;
14892;SDS011;7538;53.626;9.906;2023-05-10T05:23:03;5.13;;;4.63;;
14892;SDS011;7538;53.626;9.906;2023-05-10T05:25:30;5.25;;;4.70;;
14892;SDS011;7538;53.626;9.906;2023-05-10T05:27:57;6.18;;;4.50;;
14892;SDS011;7538;53.626;9.906;2023-05-10T05:30:24;4.85;;;4.03;;
14892;SDS011;7538;53.626;9.906;2023-05-10T05:32:51;5.25;;;3.90;;
14892;SDS011;7538;53.626;9.906;2023-05-10T05:35:18;4.40;;;3.97;;
14892;SDS011;7538;53.626;9.906;2023-05-10T05:37:45;8.38;;;4.40;;
14892;SDS011;7538;53.626;9.906;2023-05-10T05:40:14;4.80;;;4.03;;
14892;SDS011;7538;53.626;9.906;2023-05-10T05:42:40;5.30;;;4.40;;
14892;SDS011;7538;53.626;9.906;2023-05-10T05:45:08;4.68;;;4.03;;
14892;SDS011;7538;53.626;9.906;2023-05-10T05:47:38;5.88;;;4.45;;
14892;SDS011;7538;53.626;9.906;2023-05-10T05:50:05;7.40;;;4.30;;
14892;SDS011;7538;53.626;9.906;2023-05-10T05:52:32;7.53;;;4.75;;
14892;SDS011;7538;53.626;9.906;2023-05-10T05:54:59;6.40;;;4.50;;
14892;SDS011;7538;53.626;9.906;2023-05-10T05:57:27;4.60;;;4.20;;
14892;SDS011;7538;53.626;9.906;2023-05-10T05:59:54;5.07;;;4.40;;
14892;SDS011;7538;53.626;9.906;2023-05-10T06:02:21;5.30;;;3.85;;
14892;SDS011;7538;53.626;9.906;2023-05-10T06:04:48;5.00;;;3.78;;
14892;SDS011;7538;53.626;9.906;2023-05-10T06:07:15;4.13;;;3.83;;
14892;SDS011;7538;53.626;9.906;2023-05-10T06:09:41;5.15;;;4.57;;
14892;SDS011;7538;53.626;9.906;2023-05-10T06:12:08;5.47;;;4.20;;
14892;SDS011;7538;53.626;9.906;2023-05-10T06:14:38;5.40;;;4.57;;
14892;SDS011;7538;53.626;9.906;2023-05-10T06:17:04;5.82;;;4.25;;
14892;SDS011;7538;53.626;9.906;2023-05-10T06:19:31;4.75;;;4.35;;
14892;SDS011;7538;53.626;9.906;2023-05-10T06:21:58;7.72;;;4.25;;
14892;SDS011;7538;53.626;9.906;2023-05-10T06:24:25;5.00;;;4.35;;
14892;SDS011;7538;53.626;9.906;2023-05-10T06:26:52;7.85;;;4.93;;
14892;SDS011;7538;53.626;9.906;2023-05-10T06:29:19;6.32;;;4.53;;
14892;SDS011;7538;53.626;9.906;2023-05-10T06:31:47;6.13;;;4.20;;
14892;SDS011;7538;53.626;9.906;2023-05-10T06:34:14;7.93;;;4.72;;
14892;SDS011;7538;53.626;9.906;2023-05-10T06:36:41;4.90;;;4.40;;
14892;SDS011;7538;53.626;9.906;2023-05-10T06:39:08;8.05;;;4.57;;
14892;SDS011;7538;53.626;9.906;2023-05-10T06:41:36;5.68;;;4.55;;
14892;SDS011;7538;53.626;9.906;2023-05-10T06:44:03;6.57;;;4.80;;
14892;SDS011;7538;53.626;9.906;2023-05-10T06:46:30;4.53;;;4.05;;
14892;SDS011;7538;53.626;9.906;2023-05-10T06:48:58;8.43;;;4.53;;
14892;SDS011;7538;53.626;9.906;2023-05-10T06:51:25;5.30;;;4.05;;
14892;SDS011;7538;53.626;9.906;2023-05-10T06:53:52;5.93;;;4.38;;
14892;SDS011;7538;53.626;9.906;2023-05-10T06:56:19;7.85;;;4.03;;
14892;SDS011;7538;53.626;9.906;2023-05-10T06:58:46;4.95;;;4.30;;
14892;SDS011;7538;53.626;9.906;2023-05-10T07:01:14;8.95;;;4.60;;
14892;SDS011;7538;53.626;9.906;2023-05-10T07:03:40;6.53;;;5.20;;
14892;SDS011;7538;53.626;9.906;2023-05-10T07:06:09;5.95;;;4.60;;
14892;SDS011;7538;53.626;9.906;2023-05-10T07:08:35;4.93;;;3.92;;
14892;SDS011;7538;53.626;9.906;2023-05-10T07:11:03;5.90;;;4.78;;
14892;SDS011;7538;53.626;9.906;2023-05-10T07:13:32;5.53;;;4.30;;
14892;SDS011;7538;53.626;9.906;2023-05-10T07:15:59;7.13;;;4.55;;
14892;SDS011;7538;53.626;9.906;2023-05-10T07:18:27;7.55;;;5.00;;
14892;SDS011;7538;53.626;9.906;2023-05-10T07:20:54;4.53;;;4.13;;
14892;SDS011;7538;53.626;9.906;2023-05-10T07:23:22;7.00;;;4.95;;
14892;SDS011;7538;53.626;9.906;2023-05-10T07:25:49;11.13;;;4.88;;
14892;SDS011;7538;53.626;9.906;2023-05-10T07:28:17;8.68;;;4.75;;
14892;SDS011;7538;53.626;9.906;2023-05-10T07:30:44;6.45;;;4.78;;
14892;SDS011;7538;53.626;9.906;2023-05-10T07:33:12;5.88;;;4.95;;
14892;SDS011;7538;53.626;9.906;2023-05-10T07:35:39;5.93;;;4.30;;
14892;SDS011;7538;53.626;9.906;2023-05-10T07:38:06;5.97;;;4.50;;
14892;SDS011;7538;53.626;9.906;2023-05-10T07:40:34;5.97;;;4.78;;
14892;SDS011;7538;53.626;9.906;2023-05-10T07:43:01;6.35;;;4.00;;
14892;SDS011;7538;53.626;9.906;2023-05-10T07:45:28;7.65;;;5.03;;
14892;SDS011;7538;53.626;9.906;2023-05-10T07:47:55;6.20;;;4.90;;
14892;SDS011;7538;53.626;9.906;2023-05-10T07:50:22;6.85;;;4.60;;
14892;SDS011;7538;53.626;9.906;2023-05-10T07:52:49;5.32;;;4.47;;
14892;SDS011;7538;53.626;9.906;2023-05-10T07:55:15;8.63;;;5.25;;
14892;SDS011;7538;53.626;9.906;2023-05-10T07:57:46;7.00;;;4.72;;
14892;SDS011;7538;53.626;9.906;2023-05-10T08:00:13;5.22;;;4.53;;
14892;SDS011;7538;53.626;9.906;2023-05-10T08:02:44;5.20;;;4.63;;
14892;SDS011;7538;53.626;9.906;2023-05-10T08:05:10;5.13;;;4.40;;
14892;SDS011;7538;53.626;9.906;2023-05-10T08:07:37;5.80;;;4.32;;
14892;SDS011;7538;53.626;9.906;2023-05-10T08:10:05;4.85;;;4.25;;
14892;SDS011;7538;53.626;9.906;2023-05-10T08:12:33;10.52;;;4.82;;
14892;SDS011;7538;53.626;9.906;2023-05-10T08:15:01;7.57;;;4.85;;
14892;SDS011;7538;53.626;9.906;2023-05-10T08:17:28;4.75;;;4.28;;
14892;SDS011;7538;53.626;9.906;2023-05-10T08:19:55;6.53;;;5.07;;
14892;SDS011;7538;53.626;9.906;2023-05-10T08:22:22;6.43;;;4.53;;
14892;SDS011;7538;53.626;9.906;2023-05-10T08:24:49;4.47;;;4.07;;
14892;SDS011;7538;53.626;9.906;2023-05-10T08:27:15;6.82;;;4.63;;
14892;SDS011;7538;53.626;9.906;2023-05-10T08:29:42;4.95;;;4.43;;
14892;SDS011;7538;53.626;9.906;2023-05-10T08:32:10;4.13;;;3.83;;
14892;SDS011;7538;53.626;9.906;2023-05-10T08:34:37;5.63;;;4.63;;
14892;SDS011;7538;53.626;9.906;2023-05-10T08:37:04;10.25;;;4.47;;
14892;SDS011;7538;53.626;9.906;2023-05-10T08:39:33;5.35;;;4.85;;
14892;SDS011;7538;53.626;9.906;2023-05-10T08:42:01;5.88;;;4.50;;
14892;SDS011;7538;53.626;9.906;2023-05-10T08:44:30;7.25;;;4.80;;
14892;SDS011;7538;53.626;9.906;2023-05-10T08:46:58;5.68;;;4.47;;
14892;SDS011;7538;53.626;9.906;2023-05-10T08:49:29;4.43;;;3.78;;
14892;SDS011;7538;53.626;9.906;2023-05-10T08:51:58;6.72;;;4.68;;
14892;SDS011;7538;53.626;9.906;2023-05-10T08:54:28;5.18;;;4.68;;
14892;SDS011;7538;53.626;9.906;2023-05-10T08:56:56;5.50;;;4.18;;
14892;SDS011;7538;53.626;9.906;2023-05-10T08:59:23;6.38;;;4.50;;
14892;SDS011;7538;53.626;9.906;2023-05-10T09:01:50;7.88;;;5.45;;
14892;SDS011;7538;53.626;9.906;2023-05-10T09:04:18;5.78;;;5.25;;
14892;SDS011;7538;53.626;9.906;2023-05-10T09:06:47;5.55;;;4.20;;
14892;SDS011;7538;53.626;9.906;2023-05-10T09:09:14;8.02;;;4.60;;
14892;SDS011;7538;53.626;9.906;2023-05-10T09:11:43;6.00;;;4.70;;
14892;SDS011;7538;53.626;9.906;2023-05-10T09:14:10;6.05;;;4.10;;
14892;SDS011;7538;53.626;9.906;2023-05-10T09:16:39;4.93;;;4.40;;
14892;SDS011;7538;53.626;9.906;2023-05-10T09:19:06;6.60;;;4.70;;
14892;SDS011;7538;53.626;9.906;2023-05-10T09:21:34;5.05;;;4.53;;
14892;SDS011;7538;53.626;9.906;2023-05-10T09:24:05;4.85;;;4.45;;
14892;SDS011;7538;53.626;9.906;2023-05-10T09:26:32;6.32;;;5.47;;
14892;SDS011;7538;53.626;9.906;2023-05-10T09:29:00;6.18;;;4.93;;
14892;SDS011;7538;53.626;9.906;2023-05-10T09:34:20;5.57;;;5.07;;
14892;SDS011;7538;53.626;9.906;2023-05-10T09:36:55;7.85;;;5.03;;
14892;SDS011;7538;53.626;9.906;2023-05-10T09:39:31;8.77;;;5.13;;
14892;SDS011;7538;53.626;9.906;2023-05-10T09:41:58;7.22;;;5.50;;
14892;SDS011;7538;53.626;9.906;2023-05-10T09:44:28;7.18;;;5.13;;
14892;SDS011;7538;53.626;9.906;2023-05-10T09:46:55;9.60;;;5.32;;
14892;SDS011;7538;53.626;9.906;2023-05-10T09:49:22;6.13;;;5.60;;
14892;SDS011;7538;53.626;9.906;2023-05-10T09:51:59;6.50;;;5.70;;
14892;SDS011;7538;53.626;9.906;2023-05-10T09:54:27;7.28;;;5.25;;
14892;SDS011;7538;53.626;9.906;2023-05-10T09:56:55;6.35;;;5.57;;
14892;SDS011;7538;53.626;9.906;2023-05-10T09:59:24;7.60;;;5.88;;
14892;SDS011;7538;53.626;9.906;2023-05-10T10:01:52;6.47;;;5.80;;
14892;SDS011;7538;53.626;9.906;2023-05-10T10:04:19;6.55;;;5.72;;
14892;SDS011;7538;53.626;9.906;2023-05-10T10:06:47;7.03;;;6.25;;
14892;SDS011;7538;53.626;9.906;2023-05-10T10:09:25;8.60;;;6.97;;
14892;SDS011;7538;53.626;9.906;2023-05-10T10:11:53;6.28;;;5.50;;
14892;SDS011;7538;53.626;9.906;2023-05-10T10:14:21;7.75;;;7.00;;
14892;SDS011;7538;53.626;9.906;2023-05-10T10:16:49;21.02;;;15.68;;
14892;SDS011;7538;53.626;9.906;2023-05-10T10:19:16;10.98;;;8.30;;
14892;SDS011;7538;53.626;9.906;2023-05-10T10:21:44;8.90;;;6.68;;
14892;SDS011;7538;53.626;9.906;2023-05-10T10:24:10;42.70;;;30.50;;
14892;SDS011;7538;53.626;9.906;2023-05-10T10:26:37;8.02;;;7.15;;
14892;SDS011;7538;53.626;9.906;2023-05-10T10:29:10;9.80;;;7.57;;
14892;SDS011;7538;53.626;9.906;2023-05-10T10:31:47;8.50;;;7.18;;
14892;SDS011;7538;53.626;9.906;2023-05-10T10:34:21;7.97;;;6.88;;
14892;SDS011;7538;53.626;9.906;2023-05-10T10:36:55;8.32;;;7.53;;
14892;SDS011;7538;53.626;9.906;2023-05-10T10:39:23;10.30;;;8.65;;
14892;SDS011;7538;53.626;9.906;2023-05-10T10:41:51;9.43;;;8.43;;
14892;SDS011;7538;53.626;9.906;2023-05-10T10:44:24;10.68;;;8.32;;
14892;SDS011;7538;53.626;9.906;2023-05-10T10:46:59;9.07;;;7.82;;
14892;SDS011;7538;53.626;9.906;2023-05-10T10:49:27;10.63;;;8.27;;
14892;SDS011;7538;53.626;9.906;2023-05-10T10:54:49;9.27;;;8.30;;
14892;SDS011;7538;53.626;9.906;2023-05-10T10:57:18;13.65;;;9.10;;
14892;SDS011;7538;53.626;9.906;2023-05-10T10:59:48;10.20;;;9.20;;
14892;SDS011;7538;53.626;9.906;2023-05-10T11:08:10;8.98;;;8.07;;
14892;SDS011;7538;53.626;9.906;2023-05-10T11:10:52;10.73;;;8.25;;
14892;SDS011;7538;53.626;9.906;2023-05-10T11:13:28;10.63;;;9.52;;
14892;SDS011;7538;53.626;9.906;2023-05-10T11:15:58;9.65;;;8.75;;
14892;SDS011;7538;53.626;9.906;2023-05-10T11:18:25;10.50;;;9.52;;
14892;SDS011;7538;53.626;9.906;2023-05-10T11:20:55;9.57;;;8.68;;
14892;SDS011;7538;53.626;9.906;2023-05-10T11:23:24;12.55;;;9.77;;
14892;SDS011;7538;53.626;9.906;2023-05-10T11:25:56;12.02;;;9.55;;
14892;SDS011;7538;53.626;9.906;2023-05-10T11:28:23;10.75;;;9.65;;
14892;SDS011;7538;53.626;9.906;2023-05-10T11:30:51;12.10;;;10.07;;
14892;SDS011;7538;53.626;9.906;2023-05-10T11:33:20;10.27;;;9.23;;
14892;SDS011;7538;53.626;9.906;2023-05-10T11:35:47;14.40;;;12.90;;
14892;SDS011;7538;53.626;9.906;2023-05-10T11:38:14;34.97;;;29.10;;
14892;SDS011;7538;53.626;9.906;2023-05-10T11:40:41;12.70;;;10.43;;
14892;SDS011;7538;53.626;9.906;2023-05-10T11:43:09;14.55;;;12.38;;
14892;SDS011;7538;53.626;9.906;2023-05-10T11:45:40;12.63;;;10.93;;
14892;SDS011;7538;53.626;9.906;2023-05-10T11:48:07;13.07;;;11.82;;
14892;SDS011;7538;53.626;9.906;2023-05-10T11:50:35;12.75;;;9.50;;
14892;SDS011;7538;53.626;9.906;2023-05-10T11:53:02;13.90;;;12.07;;
14892;SDS011;7538;53.626;9.906;2023-05-10T11:55:30;12.63;;;10.80;;
14892;SDS011;7538;53.626;9.906;2023-05-10T11:58:00;12.20;;;10.48;;
14892;SDS011;7538;53.626;9.906;2023-05-10T12:00:27;10.45;;;9.23;;
14892;SDS011;7538;53.626;9.906;2023-05-10T12:02:55;12.10;;;10.90;;
14892;SDS011;7538;53.626;9.906;2023-05-10T12:05:21;12.60;;;11.32;;
14892;SDS011;7538;53.626;9.906;2023-05-10T12:07:50;13.85;;;11.07;;
14892;SDS011;7538;53.626;9.906;2023-05-10T12:10:17;11.95;;;10.75;;
14892;SDS011;7538;53.626;9.906;2023-05-10T12:12:52;12.80;;;10.35;;
14892;SDS011;7538;53.626;9.906;2023-05-10T12:15:19;11.18;;;10.10;;
14892;SDS011;7538;53.626;9.906;2023-05-10T12:17:47;11.43;;;10.32;;
14892;SDS011;7538;53.626;9.906;2023-05-10T12:20:15;11.20;;;10.10;;
14892;SDS011;7538;53.626;9.906;2023-05-10T12:22:46;10.18;;;9.02;;
14892;SDS011;7538;53.626;9.906;2023-05-10T12:25:17;10.15;;;8.93;;
14892;SDS011;7538;53.626;9.906;2023-05-10T12:27:48;11.13;;;9.52;;
14892;SDS011;7538;53.626;9.906;2023-05-10T12:30:18;12.27;;;9.32;;
14892;SDS011;7538;53.626;9.906;2023-05-10T12:32:47;11.25;;;10.15;;
14892;SDS011;7538;53.626;9.906;2023-05-10T12:35:14;9.90;;;8.95;;
14892;SDS011;7538;53.626;9.906;2023-05-10T12:37:41;11.98;;;9.10;;
14892;SDS011;7538;53.626;9.906;2023-05-10T12:40:09;10.70;;;9.35;;
14892;SDS011;7538;53.626;9.906;2023-05-10T12:42:38;9.82;;;8.82;;
14892;SDS011;7538;53.626;9.906;2023-05-10T12:45:06;10.30;;;9.32;;
14892;SDS011;7538;53.626;9.906;2023-05-10T12:47:34;9.40;;;8.45;;
14892;SDS011;7538;53.626;9.906;2023-05-10T12:50:02;10.07;;;8.30;;
14892;SDS011;7538;53.626;9.906;2023-05-10T12:52:29;8.90;;;7.63;;
14892;SDS011;7538;53.626;9.906;2023-05-10T12:54:58;8.05;;;7.25;;
14892;SDS011;7538;53.626;9.906;2023-05-10T12:57:25;9.85;;;8.35;;
14892;SDS011;7538;53.626;9.906;2023-05-10T12:59:53;7.55;;;6.85;;
14892;SDS011;7538;53.626;9.906;2023-05-10T13:02:20;8.10;;;7.10;;
14892;SDS011;7538;53.626;9.906;2023-05-10T13:04:48;8.23;;;7.53;;
14892;SDS011;7538;53.626;9.906;2023-05-10T13:07:15;7.57;;;6.80;;
14892;SDS011;7538;53.626;9.906;2023-05-10T13:09:42;7.43;;;6.72;;
14892;SDS011;7538;53.626;9.906;2023-05-10T13:12:09;6.07;;;5.57;;
14892;SDS011;7538;53.626;9.906;2023-05-10T13:14:35;6.78;;;6.15;;
14892;SDS011;7538;53.626;9.906;2023-05-10T13:17:04;7.07;;;6.38;;
14892;SDS011;7538;53.626;9.906;2023-05-10T13:19:31;7.65;;;6.82;;
14892;SDS011;7538;53.626;9.906;2023-05-10T13:21:57;8.25;;;7.55;;
14892;SDS011;7538;53.626;9.906;2023-05-10T13:24:24;8.55;;;7.70;;
14892;SDS011;7538;53.626;9.906;2023-05-10T13:26:51;7.68;;;6.97;;
14892;SDS011;7538;53.626;9.906;2023-05-10T13:29:18;8.20;;;7.40;;
14892;SDS011;7538;53.626;9.906;2023-05-10T13:31:46;53.17;;;26.88;;
14892;SDS011;7538;53.626;9.906;2023-05-10T13:34:15;10.25;;;8.38;;
14892;SDS011;7538;53.626;9.906;2023-05-10T13:36:45;9.27;;;8.43;;
14892;SDS011;7538;53.626;9.906;2023-05-10T13:39:12;8.88;;;8.07;;
14892;SDS011;7538;53.626;9.906;2023-05-10T13:41:39;8.77;;;7.88;;
14892;SDS011;7538;53.626;9.906;2023-05-10T13:44:06;8.52;;;7.40;;
14892;SDS011;7538;53.626;9.906;2023-05-10T13:46:33;9.05;;;8.35;;
14892;SDS011;7538;53.626;9.906;2023-05-10T13:49:00;7.55;;;6.85;;
14892;SDS011;7538;53.626;9.906;2023-05-10T13:51:28;8.65;;;7.85;;
14892;SDS011;7538;53.626;9.906;2023-05-10T13:53:56;9.40;;;8.50;;
14892;SDS011;7538;53.626;9.906;2023-05-10T13:56:23;8.05;;;7.35;;
14892;SDS011;7538;53.626;9.906;2023-05-10T13:58:50;9.07;;;8.27;;
14892;SDS011;7538;53.626;9.906;2023-05-10T14:01:17;9.88;;;7.60;;
14892;SDS011;7538;53.626;9.906;2023-05-10T14:03:44;9.48;;;8.57;;
14892;SDS011;7538;53.626;9.906;2023-05-10T14:06:11;9.73;;;8.73;;
14892;SDS011;7538;53.626;9.906;2023-05-10T14:08:39;9.32;;;8.40;;
14892;SDS011;7538;53.626;9.906;2023-05-10T14:11:06;7.45;;;6.75;;
14892;SDS011;7538;53.626;9.906;2023-05-10T14:13:33;9.88;;;8.63;;
14892;SDS011;7538;53.626;9.906;2023-05-10T14:16:00;8.65;;;7.95;;
14892;SDS011;7538;53.626;9.906;2023-05-10T14:18:27;9.60;;;8.63;;
14892;SDS011;7538;53.626;9.906;2023-05-10T14:20:54;9.90;;;8.95;;
14892;SDS011;7538;53.626;9.906;2023-05-10T14:23:21;7.88;;;6.78;;
14892;SDS011;7538;53.626;9.906;2023-05-10T14:25:51;8.98;;;8.13;;
14892;SDS011;7538;53.626;9.906;2023-05-10T14:28:18;8.23;;;7.53;;
14892;SDS011;7538;53.626;9.906;2023-05-10T14:30:45;9.27;;;7.63;;
14892;SDS011;7538;53.626;9.906;2023-05-10T14:33:12;9.20;;;8.00;;
14892;SDS011;7538;53.626;9.906;2023-05-10T14:35:39;8.90;;;8.20;;
14892;SDS011;7538;53.626;9.906;2023-05-10T14:38:06;9.07;;;8.25;;
14892;SDS011;7538;53.626;9.906;2023-05-10T14:40:33;8.05;;;6.50;;
14892;SDS011;7538;53.626;9.906;2023-05-10T14:43:02;8.18;;;7.47;;
14892;SDS011;7538;53.626;9.906;2023-05-10T14:45:29;8.43;;;7.68;;
14892;SDS011;7538;53.626;9.906;2023-05-10T14:47:56;8.52;;;7.82;;
14892;SDS011;7538;53.626;9.906;2023-05-10T14:50:23;7.72;;;7.03;;
14892;SDS011;7538;53.626;9.906;2023-05-10T14:52:50;8.18;;;7.35;;
14892;SDS011;7538;53.626;9.906;2023-05-10T14:55:17;9.10;;;8.30;;
14892;SDS011;7538;53.626;9.906;2023-05-10T14:57:44;7.68;;;6.97;;
14892;SDS011;7538;53.626;9.906;2023-05-10T15:00:14;8.13;;;7.43;;
14892;SDS011;7538;53.626;9.906;2023-05-10T15:02:42;6.78;;;6.18;;
14892;SDS011;7538;53.626;9.906;2023-05-10T15:05:08;9.60;;;7.78;;
14892;SDS011;7538;53.626;9.906;2023-05-10T15:07:35;7.80;;;7.18;;
14892;SDS011;7538;53.626;9.906;2023-05-10T15:10:02;7.03;;;6.43;;
14892;SDS011;7538;53.626;9.906;2023-05-10T15:12:30;7.78;;;7.07;;
14892;SDS011;7538;53.626;9.906;2023-05-10T15:14:56;8.85;;;7.10;;
14892;SDS011;7538;53.626;9.906;2023-05-10T15:17:25;6.60;;;6.00;;
14892;SDS011;7538;53.626;9.906;2023-05-10T15:19:52;7.93;;;7.22;;